Time;durP1;ratioP1;P1;durP2;ratioP2;P2;SDS_P1;SDS_P2;PMS_P1;PMS_P2;Temp;Humidity;BMP_temperature;BMP_pressure;BME280_temperature;BME280_humidity;BME280_pressure;Samples;Min_cycle;Max_cycle;Signal;HPM_P1;HPM_P2
2021/03/19 00:00:48;;;;;;;8.18;5.10;;;;;;;8.06;58.45;101987.78;4878627;28;114157;-68
2021/03/19 00:03:16;;;;;;;10.07;5.20;;;;;;;8.03;58.66;101985.22;4874655;28;114001;-68
2021/03/19 00:05:43;;;;;;;12.13;5.43;;;;;;;8.03;58.74;101995.75;4874136;28;123981;-69
2021/03/19 00:08:09;;;;;;;11.35;4.95;;;;;;;8.02;58.81;101986.09;4874689;28;123015;-68
2021/03/19 00:10:36;;;;;;;10.68;4.75;;;;;;;7.99;58.65;101990.53;4875607;28;114355;-68
2021/03/19 00:13:08;;;;;;;12.60;5.40;;;;;;;7.99;58.74;101994.94;4872956;28;114838;-68
2021/03/19 00:15:36;;;;;;;12.00;5.45;;;;;;;7.97;58.60;101992.31;4857806;28;123567;-68
2021/03/19 00:18:05;;;;;;;10.80;5.32;;;;;;;7.91;58.55;101992.41;4874428;28;125036;-68
2021/03/19 00:20:37;;;;;;;14.00;5.25;;;;;;;7.88;58.46;101996.88;4876467;28;113001;-68
2021/03/19 00:23:05;;;;;;;9.80;5.40;;;;;;;7.84;58.82;101998.69;4874625;28;114187;-68
2021/03/19 00:25:32;;;;;;;14.32;5.40;;;;;;;7.79;58.48;102009.28;4876093;28;124112;-68
2021/03/19 00:27:59;;;;;;;11.18;5.35;;;;;;;7.77;58.91;102011.06;4877587;28;124081;-67
2021/03/19 00:30:26;;;;;;;13.77;5.22;;;;;;;7.74;58.83;102010.25;4876673;28;114113;-69
2021/03/19 00:32:55;;;;;;;11.68;5.22;;;;;;;7.71;58.58;102015.56;4877964;28;114452;-68
2021/03/19 00:35:22;;;;;;;14.55;5.63;;;;;;;7.68;58.49;102020.88;4877381;28;124938;-69
2021/03/19 00:37:49;;;;;;;9.20;4.70;;;;;;;7.64;58.74;102025.31;4876409;28;122817;-69
2021/03/19 00:40:16;;;;;;;11.98;5.55;;;;;;;7.61;58.85;102020.13;4862622;28;113228;-69
2021/03/19 00:42:44;;;;;;;13.10;5.50;;;;;;;7.57;58.75;102019.28;4877928;28;113990;-69
2021/03/19 00:45:14;;;;;;;11.00;5.10;;;;;;;7.54;59.22;102019.31;4860461;28;123311;-68
2021/03/19 00:47:51;;;;;;;14.85;5.53;;;;;;;7.52;59.00;102021.09;4877109;28;123340;-68
2021/03/19 00:50:32;;;;;;;10.48;5.05;;;;;;;7.49;58.83;102031.66;4884744;28;114366;-68
2021/03/19 00:52:58;;;;;;;13.68;5.57;;;;;;;7.46;58.86;102026.47;4876172;28;114411;-68
2021/03/19 00:55:25;;;;;;;11.68;5.40;;;;;;;7.43;59.02;102031.75;4879420;28;124691;-70
2021/03/19 00:57:53;;;;;;;12.55;5.53;;;;;;;7.40;58.63;102029.16;4876523;28;122641;-68
2021/03/19 01:00:23;;;;;;;10.65;5.53;;;;;;;7.37;58.73;102037.13;4878084;28;114687;-68
2021/03/19 01:02:50;;;;;;;11.05;5.38;;;;;;;7.33;58.95;102035.41;4877607;28;115331;-69
2021/03/19 01:05:21;;;;;;;9.95;5.25;;;;;;;7.31;58.79;102042.44;4878444;28;124438;-69
2021/03/19 01:07:49;;;;;;;10.90;5.35;;;;;;;7.27;58.78;102036.38;4881616;28;124184;-69
2021/03/19 01:10:27;;;;;;;12.43;5.50;;;;;;;7.24;59.04;102040.78;4876161;28;113825;-68
2021/03/19 01:12:54;;;;;;;11.57;5.00;;;;;;;7.20;58.81;102035.56;4880187;28;113072;-69
2021/03/19 01:15:22;;;;;;;8.57;5.10;;;;;;;7.16;58.66;102039.13;4876507;28;124459;-69
2021/03/19 01:17:48;;;;;;;9.45;5.07;;;;;;;7.11;58.90;102035.66;4879562;28;123850;-69
2021/03/19 01:20:16;;;;;;;10.73;5.00;;;;;;;7.06;58.95;102037.47;4905537;23;114423;-73
2021/03/19 01:22:43;;;;;;;10.27;4.97;;;;;;;7.04;58.96;102049.78;4867204;28;114915;-73
2021/03/19 01:25:14;;;;;;;7.88;5.50;;;;;;;6.99;59.19;102041.06;4883522;28;123978;-73
2021/03/19 01:27:42;;;;;;;8.82;5.18;;;;;;;6.97;58.90;102042.84;4879396;28;124432;-73
2021/03/19 01:30:12;;;;;;;8.77;5.07;;;;;;;6.94;58.91;102048.16;4857284;28;113506;-73
2021/03/19 01:32:39;;;;;;;10.02;5.05;;;;;;;6.91;59.01;102053.44;4845074;28;113535;-73
2021/03/19 01:35:07;;;;;;;7.82;5.03;;;;;;;6.87;58.90;102057.84;4847305;28;124817;-73
2021/03/19 01:37:33;;;;;;;7.35;5.47;;;;;;;6.83;58.86;102062.28;4858974;28;124084;-73
2021/03/19 01:40:00;;;;;;;10.00;5.70;;;;;;;6.78;58.73;102064.09;4861909;28;114597;-73
2021/03/19 01:42:26;;;;;;;8.98;5.72;;;;;;;6.73;59.05;102065.03;4858670;28;113977;-73
2021/03/19 01:45:12;;;;;;;7.43;5.20;;;;;;;6.69;58.84;102079.97;4842917;28;123255;-73
2021/03/19 01:48:16;;;;;;;8.60;5.40;;;;;;;6.61;58.98;102079.16;4841916;28;123299;-73
2021/03/19 01:51:21;;;;;;;7.90;5.10;;;;;;;6.56;59.13;102083.59;4858653;28;114364;-73
2021/03/19 01:54:38;;;;;;;10.63;5.47;;;;;;;6.52;59.07;102087.16;4859299;28;113695;-73
2021/03/19 01:57:42;;;;;;;11.77;5.60;;;;;;;6.46;59.32;102087.19;4837228;28;123242;-73
2021/03/19 02:00:46;;;;;;;10.13;5.30;;;;;;;6.41;59.45;102090.72;4848340;28;124065;-73
2021/03/19 02:04:04;;;;;;;9.25;6.30;;;;;;;6.36;59.23;102092.50;4858416;28;116901;-73
2021/03/19 02:07:09;;;;;;;10.43;6.38;;;;;;;6.32;59.27;102090.78;4830646;28;112866;-73
2021/03/19 02:10:13;;;;;;;12.63;6.40;;;;;;;6.25;59.63;102104.88;4856024;28;123926;-73
2021/03/19 02:13:17;;;;;;;11.13;7.13;;;;;;;6.21;59.82;102108.41;4861971;28;124257;-73
2021/03/19 02:16:21;;;;;;;11.27;6.63;;;;;;;6.16;59.84;102099.66;4859752;28;117037;-74
2021/03/19 02:19:25;;;;;;;13.15;7.25;;;;;;;6.12;59.89;102109.38;4856085;28;114657;-73
2021/03/19 02:22:33;;;;;;;13.32;7.28;;;;;;;6.08;60.06;102106.75;4871256;28;124215;-73
2021/03/19 02:25:38;;;;;;;12.32;7.38;;;;;;;6.04;59.77;102112.00;4861933;28;124073;-73
2021/03/19 02:28:42;;;;;;;11.57;7.05;;;;;;;6.00;59.78;102115.53;4857017;28;114340;-73
2021/03/19 02:31:09;;;;;;;12.00;7.18;;;;;;;6.00;59.75;102115.53;4858443;28;113890;-73
2021/03/19 02:33:43;;;;;;;12.65;7.75;;;;;;;5.96;60.08;102119.06;4843767;28;124656;-73
2021/03/19 02:36:11;;;;;;;12.65;8.20;;;;;;;5.96;59.91;102123.47;4858102;28;124753;-73
2021/03/19 02:38:38;;;;;;;12.45;8.15;;;;;;;5.94;60.37;102115.56;4864031;28;114537;-73
2021/03/19 02:41:05;;;;;;;12.45;7.40;;;;;;;5.93;60.23;102118.19;4859245;28;114278;-73
2021/03/19 02:43:32;;;;;;;12.50;8.02;;;;;;;5.91;59.97;102120.81;4858161;28;123804;-73
2021/03/19 02:45:59;;;;;;;12.00;8.23;;;;;;;5.91;60.09;102126.06;4824914;28;122877;-73
2021/03/19 02:48:25;;;;;;;13.88;7.40;;;;;;;5.91;60.40;102131.34;4872436;28;113989;-73
2021/03/19 02:50:52;;;;;;;13.55;8.13;;;;;;;5.92;59.86;102127.84;4862714;28;114138;-73
2021/03/19 02:53:27;;;;;;;12.68;8.93;;;;;;;5.90;60.02;102129.59;4862310;28;124322;-73
2021/03/19 02:55:57;;;;;;;11.75;7.55;;;;;;;5.88;59.88;102136.63;4863159;28;123190;-73
2021/03/19 02:58:25;;;;;;;12.57;8.38;;;;;;;5.88;59.98;102135.72;4860202;28;114114;-73
2021/03/19 03:00:52;;;;;;;14.55;8.40;;;;;;;5.86;59.87;102133.13;4860937;28;113864;-73
2021/03/19 03:03:19;;;;;;;13.90;8.35;;;;;;;5.85;60.16;102131.38;4854959;28;123917;-73
2021/03/19 03:05:47;;;;;;;16.63;9.60;;;;;;;5.83;59.94;102138.41;4856338;28;123959;-73
2021/03/19 03:08:16;;;;;;;14.50;8.80;;;;;;;5.81;59.94;102142.78;4856319;28;114077;-73
2021/03/19 03:10:44;;;;;;;16.17;8.90;;;;;;;5.79;60.18;102139.28;4842591;28;113799;-73
2021/03/19 03:13:12;;;;;;;17.35;8.80;;;;;;;5.77;59.84;102138.44;4856645;28;123796;-73
2021/03/19 03:15:40;;;;;;;14.60;8.70;;;;;;;5.75;59.88;102145.44;4866852;28;123924;-73
2021/03/19 03:18:07;;;;;;;15.00;8.95;;;;;;;5.73;60.10;102144.59;4855959;28;113203;-73
2021/03/19 03:20:45;;;;;;;14.52;8.25;;;;;;;5.69;60.22;102142.81;4858940;28;113792;-73
2021/03/19 03:23:14;;;;;;;13.85;8.65;;;;;;;5.70;60.33;102141.97;4838505;28;123713;-73
2021/03/19 03:25:41;;;;;;;16.17;10.02;;;;;;;5.68;60.22;102143.72;4858614;28;123819;-73
2021/03/19 03:28:09;;;;;;;14.70;8.93;;;;;;;5.65;60.02;102145.47;4862815;28;114467;-73
2021/03/19 03:30:41;;;;;;;14.93;9.50;;;;;;;5.65;59.92;102153.38;4857627;28;114020;-74
2021/03/19 03:33:08;;;;;;;13.98;9.35;;;;;;;5.63;60.22;102149.88;4851069;28;123754;-73
2021/03/19 03:35:36;;;;;;;16.48;8.98;;;;;;;5.62;59.78;102149.88;4859745;28;123759;-73
2021/03/19 03:38:05;;;;;;;14.70;8.45;;;;;;;5.62;60.11;102149.88;4859556;28;114306;-73
2021/03/19 03:40:40;;;;;;;13.73;8.23;;;;;;;5.61;59.95;102149.00;4842348;28;114157;-73
2021/03/19 03:43:07;;;;;;;11.98;8.25;;;;;;;5.61;59.81;102153.38;4838979;28;123749;-73
2021/03/19 03:45:34;;;;;;;14.38;8.30;;;;;;;5.59;59.98;102160.38;4839427;28;122943;-73
2021/03/19 03:48:01;;;;;;;14.10;8.43;;;;;;;5.58;60.04;102163.91;4856561;28;114277;-73
2021/03/19 03:50:30;;;;;;;14.48;8.77;;;;;;;5.56;59.70;102163.91;4872687;28;113850;-73
2021/03/19 03:53:07;;;;;;;13.73;8.75;;;;;;;5.54;59.53;102173.56;4859161;28;124022;-73
2021/03/19 03:55:34;;;;;;;17.75;8.55;;;;;;;5.52;59.64;102175.31;4840748;28;124561;-73
2021/03/19 03:58:02;;;;;;;17.83;8.90;;;;;;;5.51;59.62;102173.53;4863169;28;116852;-73
2021/03/19 04:00:29;;;;;;;15.60;8.23;;;;;;;5.50;59.84;102179.69;4862665;28;115042;-73
2021/03/19 04:02:56;;;;;;;14.75;8.55;;;;;;;5.49;59.64;102175.31;4845251;28;123577;-74
2021/03/19 04:05:30;;;;;;;14.93;8.55;;;;;;;5.46;59.87;102180.56;4863557;28;124342;-73
2021/03/19 04:07:57;;;;;;;13.48;8.30;;;;;;;5.45;59.66;102181.44;4842602;28;113346;-73
2021/03/19 04:10:24;;;;;;;15.60;8.93;;;;;;;5.43;59.90;102185.84;4863033;28;113949;-73
2021/03/19 04:12:51;;;;;;;13.90;7.97;;;;;;;5.41;59.76;102188.47;4848667;28;123794;-73
2021/03/19 04:15:19;;;;;;;14.95;8.90;;;;;;;5.41;59.62;102191.09;4856255;28;123857;-73
2021/03/19 04:17:46;;;;;;;17.15;9.65;;;;;;;5.39;59.74;102194.63;4848001;28;114200;-73
2021/03/19 04:20:16;;;;;;;15.40;8.52;;;;;;;5.37;59.67;102191.09;4845578;28;114360;-73
2021/03/19 04:22:44;;;;;;;12.35;8.30;;;;;;;5.36;59.84;102194.59;4859620;28;124618;-72
2021/03/19 04:25:12;;;;;;;16.73;8.93;;;;;;;5.35;59.84;102203.34;4855464;28;124071;-73
2021/03/19 04:27:50;;;;;;;15.60;8.57;;;;;;;5.32;59.61;102209.50;4860971;28;114079;-73
2021/03/19 04:30:22;;;;;;;17.27;8.63;;;;;;;5.31;59.78;102206.84;4860840;28;114205;-73
2021/03/19 04:32:50;;;;;;;16.10;8.93;;;;;;;5.29;59.74;102208.63;4841745;28;125205;-73
2021/03/19 04:35:19;;;;;;;18.25;8.35;;;;;;;5.26;59.85;102215.63;4857663;28;123850;-73
2021/03/19 04:37:48;;;;;;;14.88;8.88;;;;;;;5.25;59.76;102213.91;4865054;28;114436;-73
2021/03/19 04:40:16;;;;;;;16.88;9.05;;;;;;;5.24;60.01;102217.38;4876649;28;113442;-73
2021/03/19 04:42:42;;;;;;;14.38;8.52;;;;;;;5.24;60.09;102221.78;4843565;28;123814;-73
2021/03/19 04:45:11;;;;;;;13.65;9.30;;;;;;;5.23;59.83;102231.38;4861131;28;124574;-73
2021/03/19 04:47:38;;;;;;;17.27;9.63;;;;;;;5.21;59.98;102233.13;4860494;28;115096;-73
2021/03/19 04:50:09;;;;;;;16.15;8.93;;;;;;;5.19;59.76;102227.00;4860484;28;114793;-73
2021/03/19 04:52:36;;;;;;;15.77;9.00;;;;;;;5.19;59.86;102224.38;4857896;28;124087;-73
2021/03/19 04:55:05;;;;;;;13.48;8.27;;;;;;;5.18;60.01;102227.91;4856322;28;123710;-72
2021/03/19 04:57:32;;;;;;;14.90;9.38;;;;;;;5.18;59.77;102227.91;4859752;28;114389;-73
2021/03/19 04:59:59;;;;;;;13.18;8.85;;;;;;;5.18;59.91;102227.91;4863303;28;114359;-72
2021/03/19 05:02:40;;;;;;;15.40;8.65;;;;;;;5.15;59.90;102243.66;4865574;28;124805;-72
2021/03/19 05:05:18;;;;;;;15.32;9.35;;;;;;;5.16;59.66;102240.16;4842440;28;125094;-73
2021/03/19 05:07:45;;;;;;;14.30;8.60;;;;;;;5.17;59.72;102256.78;4858909;28;113392;-72
2021/03/19 05:10:13;;;;;;;16.20;8.75;;;;;;;5.15;59.81;102259.41;4844243;28;114289;-73
2021/03/19 05:12:40;;;;;;;14.98;8.57;;;;;;;5.13;59.73;102268.16;4864716;28;124375;-72
2021/03/19 05:15:08;;;;;;;14.35;9.50;;;;;;;5.10;59.54;102265.53;4864953;28;124413;-72
2021/03/19 05:17:35;;;;;;;14.88;8.90;;;;;;;5.07;59.53;102267.28;4864443;28;115016;-72
2021/03/19 05:20:09;;;;;;;15.32;8.95;;;;;;;5.06;59.73;102269.91;4845344;28;113117;-73
2021/03/19 05:22:36;;;;;;;18.17;9.15;;;;;;;5.06;59.74;102264.66;4858046;28;124391;-73
2021/03/19 05:25:04;;;;;;;14.38;8.90;;;;;;;5.04;59.59;102272.50;4840631;28;123890;-72
2021/03/19 05:27:31;;;;;;;15.18;8.80;;;;;;;5.04;59.77;102271.66;4860062;28;114932;-73
2021/03/19 05:29:58;;;;;;;14.48;9.65;;;;;;;5.04;59.73;102279.53;4861998;28;114491;-72
2021/03/19 05:32:26;;;;;;;15.00;8.52;;;;;;;5.03;59.40;102276.03;4856197;28;124146;-72
2021/03/19 05:34:53;;;;;;;13.65;8.35;;;;;;;5.04;59.52;102282.16;4855876;28;124970;-72
2021/03/19 05:37:20;;;;;;;15.25;9.77;;;;;;;5.05;59.42;102290.03;4838642;28;115616;-73
2021/03/19 05:39:47;;;;;;;14.02;8.68;;;;;;;5.05;59.31;102289.16;4856633;28;113795;-72
2021/03/19 05:42:35;;;;;;;13.70;7.85;;;;;;;5.02;59.27;102291.78;4827076;28;123334;-72
2021/03/19 05:45:21;;;;;;;14.88;8.20;;;;;;;5.01;59.37;102292.63;4857518;28;122719;-72
2021/03/19 05:47:48;;;;;;;15.82;8.40;;;;;;;5.01;59.26;102292.63;4857519;28;114199;-73
2021/03/19 05:50:24;;;;;;;14.10;8.27;;;;;;;5.01;59.18;102297.88;4855789;28;113446;-72
2021/03/19 05:52:52;;;;;;;13.05;8.60;;;;;;;5.00;59.04;102307.53;4861479;28;124380;-73
2021/03/19 05:55:22;;;;;;;16.25;8.82;;;;;;;4.99;59.20;102315.41;4862066;28;124117;-72
2021/03/19 05:57:54;;;;;;;14.35;8.00;;;;;;;4.96;59.07;102321.53;4866197;28;113952;-73
2021/03/19 06:00:24;;;;;;;14.18;7.55;;;;;;;4.95;59.18;102316.25;4855572;28;113522;-73
2021/03/19 06:02:50;;;;;;;15.95;8.13;;;;;;;4.94;59.24;102312.78;4865292;28;124380;-73
2021/03/19 06:05:22;;;;;;;11.27;7.72;;;;;;;4.93;59.32;102320.63;4872526;28;123317;-72
2021/03/19 06:07:54;;;;;;;13.90;7.90;;;;;;;4.92;59.42;102318.91;4845093;28;114465;-72
2021/03/19 06:10:39;;;;;;;14.82;7.90;;;;;;;4.93;59.44;102325.91;4859216;28;114267;-72
2021/03/19 06:13:15;;;;;;;13.82;8.00;;;;;;;4.93;59.30;102326.75;4860504;28;124249;-72
2021/03/19 06:15:43;;;;;;;;;;;;;;;4.93;58.97;102336.41;4852345;28;124484;-72
2021/03/19 06:18:20;;;;;;;14.10;6.85;;;;;;;4.93;58.96;102331.16;4859311;28;114622;-72
2021/03/19 06:21:06;;;;;;;11.55;6.80;;;;;;;4.92;59.25;102337.28;4861215;28;113748;-72
2021/03/19 06:23:33;;;;;;;14.43;6.82;;;;;;;4.91;59.08;102333.75;4854972;28;123341;-73
2021/03/19 06:26:22;;;;;;;11.52;6.95;;;;;;;4.92;59.30;102337.28;4861623;28;123809;-73
2021/03/19 06:29:03;;;;;;;12.00;6.50;;;;;;;4.92;59.03;102332.03;4859719;28;115544;-72
2021/03/19 06:31:32;;;;;;;13.15;6.93;;;;;;;4.93;59.22;102341.66;4857374;28;114150;-73
2021/03/19 06:34:15;;;;;;;12.70;6.85;;;;;;;4.93;59.10;102346.91;4841211;28;124235;-72
2021/03/19 06:37:06;;;;;;;11.55;6.65;;;;;;;4.95;59.00;102345.16;4837484;28;124322;-72
2021/03/19 06:39:48;;;;;;;11.75;6.85;;;;;;;4.98;58.94;102345.16;4862096;28;114136;-72
2021/03/19 06:42:17;;;;;;;10.52;6.00;;;;;;;5.04;59.50;102350.44;4827716;28;113907;-73
2021/03/19 06:45:06;;;;;;;10.52;6.70;;;;;;;5.13;59.33;102345.19;4857870;28;124012;-73
2021/03/19 06:47:40;;;;;;;9.40;5.70;;;;;;;5.25;59.47;102360.09;4842335;28;123671;-73
2021/03/19 06:50:13;;;;;;;10.27;5.80;;;;;;;5.39;59.64;102357.50;4853662;28;113084;-73
2021/03/19 06:52:40;;;;;;;9.73;5.57;;;;;;;5.55;59.39;102353.97;4854192;28;114032;-73
2021/03/19 06:55:39;;;;;;;11.10;5.82;;;;;;;5.72;59.53;102356.59;4842573;28;123218;-73
2021/03/19 06:58:06;;;;;;;8.95;5.30;;;;;;;5.88;58.97;102367.09;4857925;28;124153;-73
2021/03/19 07:00:49;;;;;;;9.77;6.00;;;;;;;6.02;58.95;102362.75;4859485;28;114280;-73
2021/03/19 07:03:47;;;;;;;9.02;4.72;;;;;;;6.16;58.38;102373.22;4859642;28;113764;-73
2021/03/19 07:06:26;;;;;;;9.40;5.15;;;;;;;6.27;58.33;102371.47;4856863;28;124112;-73
2021/03/19 07:09:21;;;;;;;8.23;5.55;;;;;;;6.37;58.24;102383.72;4858816;28;124568;-73
2021/03/19 07:12:00;;;;;;;8.43;4.85;;;;;;;6.48;57.77;102385.44;4859032;28;114406;-73
2021/03/19 07:14:56;;;;;;;8.55;4.75;;;;;;;6.59;57.95;102394.19;4845860;28;113481;-73
2021/03/19 07:17:49;;;;;;;8.93;4.95;;;;;;;6.67;57.34;102392.41;4860836;28;124393;-73
2021/03/19 07:20:53;;;;;;;10.90;5.72;;;;;;;6.73;56.83;102397.66;4862679;23;122850;-68
2021/03/19 07:23:24;;;;;;;9.43;4.72;;;;;;;6.81;56.80;102397.59;4896887;28;113851;-69
2021/03/19 07:26:14;;;;;;;9.00;4.47;;;;;;;6.86;56.41;102397.59;4901015;28;114624;-68
2021/03/19 07:29:03;;;;;;;8.55;4.20;;;;;;;6.92;56.32;102402.84;4895820;28;124282;-70
2021/03/19 07:32:01;;;;;;;7.60;4.47;;;;;;;6.97;56.27;102403.69;4896732;28;124207;-70
2021/03/19 07:34:48;;;;;;;7.88;4.30;;;;;;;7.04;55.79;102418.56;4897749;28;115195;-69
2021/03/19 07:37:44;;;;;;;8.25;4.15;;;;;;;7.09;56.24;102416.78;4899081;28;112899;-69
2021/03/19 07:40:23;;;;;;;10.37;3.97;;;;;;;7.12;55.56;102427.31;4898814;28;124117;-69
2021/03/19 07:43:15;;;;;;;7.10;4.20;;;;;;;7.15;55.58;102427.28;4902302;28;124167;-68
2021/03/19 07:45:42;;;;;;;7.20;4.43;;;;;;;7.20;55.66;102430.78;4896226;28;114645;-69
2021/03/19 07:48:31;;;;;;;7.10;4.05;;;;;;;7.24;55.15;102422.88;4904009;28;112240;-68
2021/03/19 07:51:01;;;;;;;8.23;4.22;;;;;;;7.33;55.63;102436.00;4898797;28;124174;-68
2021/03/19 07:53:46;;;;;;;6.97;3.92;;;;;;;7.38;54.72;102439.47;4900028;28;124034;-69
2021/03/19 07:56:35;;;;;;;8.68;4.07;;;;;;;7.43;54.66;102437.69;4908384;28;113819;-69
2021/03/19 07:59:27;;;;;;;7.00;4.35;;;;;;;7.48;54.93;102435.00;4910797;28;113456;-69
2021/03/19 08:02:01;;;;;;;9.10;4.45;;;;;;;7.54;54.49;102441.13;4909023;28;123428;-68
2021/03/19 08:04:42;;;;;;;10.27;4.22;;;;;;;7.62;54.94;102432.28;4905073;28;123820;-68
2021/03/19 08:07:24;;;;;;;7.60;4.10;;;;;;;7.69;54.19;102439.28;4906829;28;114090;-69
2021/03/19 08:10:00;;;;;;;5.72;4.05;;;;;;;7.75;54.38;102441.88;4894829;28;113870;-69
2021/03/19 08:12:54;;;;;;;6.53;4.00;;;;;;;7.81;53.87;102439.19;4908092;28;123893;-69
2021/03/19 08:15:37;;;;;;;6.50;3.70;;;;;;;7.85;53.86;102440.88;4910908;28;126433;-69
2021/03/19 08:18:14;;;;;;;6.57;3.40;;;;;;;7.89;53.19;102453.19;4896854;28;115092;-68
2021/03/19 08:21:21;;;;;;;7.07;3.80;;;;;;;7.90;53.25;102454.94;4904822;28;115397;-69
2021/03/19 08:23:58;;;;;;;6.97;3.45;;;;;;;7.96;53.19;102454.00;4863658;28;126404;-69
2021/03/19 08:26:49;;;;;;;6.72;3.70;;;;;;;8.01;53.23;102453.97;4902025;28;123359;-69
2021/03/19 08:29:30;;;;;;;6.32;3.40;;;;;;;8.08;52.80;102458.28;4899943;28;114562;-68
2021/03/19 08:32:19;;;;;;;8.45;3.88;;;;;;;8.12;53.06;102465.31;4912274;28;114086;-69
2021/03/19 08:35:19;;;;;;;6.18;3.45;;;;;;;8.20;53.44;102468.75;4906594;28;123846;-69
2021/03/19 08:38:09;;;;;;;4.32;2.95;;;;;;;8.29;53.12;102468.69;4919185;28;123582;-68
2021/03/19 08:40:42;;;;;;;7.68;3.20;;;;;;;8.35;52.03;102473.91;4907831;28;114589;-68
2021/03/19 08:43:22;;;;;;;6.10;3.20;;;;;;;8.41;51.48;102466.81;4903185;28;113800;-66
2021/03/19 08:45:58;;;;;;;5.65;3.22;;;;;;;8.46;52.02;102481.75;4905739;28;123436;-68
2021/03/19 08:48:32;;;;;;;5.55;2.95;;;;;;;8.52;52.09;102481.69;4905743;28;124876;-68
2021/03/19 08:51:19;;;;;;;4.35;2.70;;;;;;;8.60;51.64;102483.38;4914552;28;113024;-67
2021/03/19 08:54:06;;;;;;;4.95;2.40;;;;;;;8.65;50.96;102482.44;4905237;28;114225;-68
2021/03/19 08:57:29;;;;;;;4.45;2.45;;;;;;;8.72;51.32;102491.16;4907175;28;124186;-68
2021/03/19 08:59:56;;;;;;;4.50;2.45;;;;;;;8.81;50.64;102492.84;4897251;28;123771;-68
2021/03/19 09:02:26;;;;;;;5.68;2.55;;;;;;;8.87;50.30;102495.41;4906903;28;113593;-67
2021/03/19 09:04:53;;;;;;;5.60;2.53;;;;;;;8.92;50.25;102497.09;4899979;28;114387;-69
2021/03/19 09:07:33;;;;;;;4.50;2.50;;;;;;;9.02;50.49;102500.50;4903641;28;124314;-67
2021/03/19 09:10:03;;;;;;;4.75;2.08;;;;;;;9.11;49.50;102503.03;4887696;28;123566;-68
2021/03/19 09:12:32;;;;;;;4.78;2.40;;;;;;;9.20;49.54;102511.75;4900748;28;115880;-68
2021/03/19 09:15:15;;;;;;;3.35;2.00;;;;;;;9.25;49.17;102515.19;4908508;28;114134;-69
2021/03/19 09:17:51;;;;;;;4.47;2.22;;;;;;;9.30;48.82;102514.25;4909559;28;123749;-69
2021/03/19 09:20:30;;;;;;;3.40;2.00;;;;;;;9.34;48.44;102520.38;4904983;28;123808;-69
2021/03/19 09:23:10;;;;;;;3.20;2.15;;;;;;;9.36;48.06;102518.59;4908167;28;114581;-68
2021/03/19 09:25:40;;;;;;;3.00;2.05;;;;;;;9.41;47.77;102522.06;4897462;28;113873;-73
2021/03/19 09:28:25;;;;;;;2.95;2.00;;;;;;;9.44;47.96;102527.31;4897159;28;124343;-69
2021/03/19 09:31:10;;;;;;;4.00;2.00;;;;;;;9.48;47.21;102526.38;4898025;28;122601;-70
2021/03/19 09:33:43;;;;;;;4.40;1.88;;;;;;;9.51;47.63;102523.69;4903930;28;114922;-70
2021/03/19 09:36:48;;;;;;;4.25;1.83;;;;;;;9.54;47.78;102528.94;4917457;28;112935;-70
2021/03/19 09:39:52;;;;;;;4.15;1.98;;;;;;;9.59;46.66;102535.91;4902386;28;123999;-70
2021/03/19 09:42:22;;;;;;;4.22;1.90;;;;;;;9.64;46.57;102523.50;4894851;28;123753;-70
2021/03/19 09:44:59;;;;;;;2.95;1.90;;;;;;;9.68;45.77;102535.78;4895178;28;113547;-70
2021/03/19 09:47:36;;;;;;;3.30;2.17;;;;;;;9.67;45.09;102528.78;4893002;28;113712;-70
2021/03/19 09:50:22;;;;;;;3.22;2.05;;;;;;;9.70;45.56;102526.97;4903710;28;124152;-70
2021/03/19 09:53:00;;;;;;;4.45;2.08;;;;;;;9.71;45.36;102525.19;4897144;28;123950;-70
2021/03/19 09:55:39;;;;;;;5.10;2.22;;;;;;;9.74;45.56;102541.88;4903991;28;114669;-68
2021/03/19 09:58:19;;;;;;;6.30;2.67;;;;;;;9.79;45.42;102539.16;4902886;28;113588;-69
2021/03/19 10:00:50;;;;;;;4.15;2.53;;;;;;;9.88;45.94;102541.69;4897879;28;124132;-68
2021/03/19 10:03:17;;;;;;;4.38;2.35;;;;;;;9.99;46.26;102538.00;4877903;28;123154;-68
2021/03/19 10:05:46;;;;;;;4.38;2.15;;;;;;;10.06;46.06;102548.47;4901104;28;115055;-68
2021/03/19 10:08:31;;;;;;;4.65;2.50;;;;;;;10.11;45.90;102548.41;4904727;28;113141;-68
2021/03/19 10:11:11;;;;;;;4.50;2.58;;;;;;;10.16;45.76;102553.63;4907974;28;124330;-68
2021/03/19 10:13:37;;;;;;;5.22;2.58;;;;;;;10.19;45.08;102554.47;4903801;28;124436;-68
2021/03/19 10:16:06;;;;;;;4.68;2.67;;;;;;;10.21;45.08;102547.38;4902587;28;113252;-68
2021/03/19 10:18:46;;;;;;;3.88;2.70;;;;;;;10.24;45.17;102557.88;4902475;28;112949;-68
2021/03/19 10:21:20;;;;;;;6.03;2.90;;;;;;;10.26;45.56;102558.72;4904373;28;124837;-68
2021/03/19 10:23:54;;;;;;;3.97;2.40;;;;;;;10.31;44.82;102556.94;4900522;28;122650;-68
2021/03/19 10:26:33;;;;;;;4.70;2.75;;;;;;;10.35;45.04;102560.41;4903521;28;114537;-68
2021/03/19 10:29:15;;;;;;;4.75;2.85;;;;;;;10.34;44.49;102558.69;4898759;28;114246;-69
2021/03/19 10:31:50;;;;;;;6.00;2.67;;;;;;;10.38;45.02;102560.38;4892249;28;123902;-68
2021/03/19 10:34:22;;;;;;;7.05;2.88;;;;;;;10.44;44.81;102560.25;4896183;28;123001;-68
2021/03/19 10:37:00;;;;;;;5.78;3.08;;;;;;;10.52;44.80;102552.16;4892948;28;114671;-69
2021/03/19 10:39:41;;;;;;;9.05;4.07;;;;;;;10.56;44.10;102553.88;4899189;28;114313;-68
2021/03/19 10:42:25;;;;;;;13.18;4.35;;;;;;;10.57;44.13;102555.63;4896533;28;124123;-68
2021/03/19 10:45:07;;;;;;;6.80;2.88;;;;;;;10.57;42.98;102555.63;4896100;28;122804;-68
2021/03/19 10:47:56;;;;;;;5.40;2.63;;;;;;;10.55;43.97;102560.09;4905422;28;114323;-68
2021/03/19 10:50:33;;;;;;;6.15;2.95;;;;;;;10.59;43.90;102560.91;4897976;28;113732;-69
2021/03/19 10:53:03;;;;;;;5.55;2.80;;;;;;;10.64;43.74;102566.97;4904515;28;124712;-68
2021/03/19 10:55:33;;;;;;;5.18;2.45;;;;;;;10.70;43.76;102561.59;4893815;28;123192;-68
2021/03/19 10:58:25;;;;;;;4.57;2.70;;;;;;;10.76;43.82;102556.16;4896206;28;114596;-68
2021/03/19 11:00:53;;;;;;;3.28;2.50;;;;;;;10.84;43.84;102554.25;4908185;28;114892;-68
2021/03/19 11:03:43;;;;;;;39.88;9.57;;;;;;;10.92;44.35;102562.03;4900903;28;124875;-68
2021/03/19 11:06:31;;;;;;;12.13;3.78;;;;;;;11.01;43.86;102561.00;4901947;28;122890;-68
2021/03/19 11:09:13;;;;;;;3.85;2.42;;;;;;;11.09;43.47;102554.66;4900648;28;114277;-70
2021/03/19 11:11:41;;;;;;;8.75;3.47;;;;;;;11.16;43.24;102559.84;4897367;28;113825;-70
2021/03/19 11:14:11;;;;;;;3.90;2.15;;;;;;;11.22;43.39;102557.06;4906026;28;124127;-69
2021/03/19 11:16:43;;;;;;;29.50;3.95;;;;;;;11.27;43.35;102563.16;4907618;28;124571;-69
2021/03/19 11:19:16;;;;;;;168.05;11.45;;;;;;;11.35;42.95;102563.00;4896751;28;113727;-69
2021/03/19 11:21:46;;;;;;;4.68;2.33;;;;;;;11.42;42.83;102572.56;4898064;28;113930;-68
2021/03/19 11:24:26;;;;;;;5.80;2.45;;;;;;;11.44;42.21;102561.00;4888879;28;122546;-69
2021/03/19 11:26:58;;;;;;;5.05;2.72;;;;;;;11.47;42.65;102560.97;4894585;28;124256;-67
2021/03/19 11:29:34;;;;;;;5.05;2.33;;;;;;;11.54;43.11;102566.13;4892323;28;113239;-70
2021/03/19 11:32:01;;;;;;;5.30;2.22;;;;;;;11.61;43.03;102573.06;4893299;28;113952;-68
2021/03/19 11:34:28;;;;;;;3.72;2.20;;;;;;;11.66;42.40;102565.88;4893497;28;124469;-68
2021/03/19 11:37:04;;;;;;;4.82;2.33;;;;;;;11.68;42.03;102569.38;4894189;28;124493;-69
2021/03/19 11:39:41;;;;;;;;;;;;;;;11.73;43.48;102572.78;4903600;28;114409;-68
2021/03/19 11:42:14;;;;;;;5.30;2.10;;;;;;;11.79;41.46;102577.97;4889104;28;112793;-68
2021/03/19 11:44:42;;;;;;;2.47;1.75;;;;;;;11.79;41.26;102577.97;4893207;28;123102;-68
2021/03/19 11:47:25;;;;;;;2.83;2.10;;;;;;;11.82;41.54;102572.56;4895980;28;122714;-68
2021/03/19 11:50:06;;;;;;;3.25;2.10;;;;;;;11.86;40.82;102579.56;4893829;28;115073;-68
2021/03/19 11:52:33;;;;;;;3.03;1.90;;;;;;;11.90;41.07;102572.44;4891288;28;115422;-68
2021/03/19 11:55:02;;;;;;;5.15;2.42;;;;;;;11.93;40.77;102568.84;4901112;28;124119;-68
2021/03/19 11:57:29;;;;;;;2.47;1.60;;;;;;;11.95;40.53;102567.03;4879960;28;124378;-68
2021/03/19 11:59:55;;;;;;;3.28;1.90;;;;;;;12.00;40.44;102565.16;4894251;28;114547;-69